Shelbyville, IN

8:13 AM EDT on August 28, 2014 (GMT -0400)
Mike | Change Station
CLOSE
Current Station
Personal Weather Station
Location: Shelbyville, IN
Elevation: 774 ft
Nearby Weather Stations

Elev 774 ft 39.55 °N, 85.78 °W | Updated 6 minutes ago

Clear
Clear
69.4 °F
Feels Like 69.4 °F
N
3.2
Wind Variable Wind from NE

Today
High -- | Low -- °F
--% Chance of Precip.
Yesterday
High -- | Low -- °F
Precip. -- in
7:07 AM 8:20 PM
Waxing Crescent, 8% visible
Pressure 30.08 in
Visibility 4.0 miles
Clouds Clear
Dew Point 67 °F
Humidity 91%
Rainfall 0.00 in
Snow Depth Not available.
UV 0 out of 12
Pollen 10.40 out of 12
Ozone Good
PM2.5 Good
Flu Activity Not available.
METAR KGEZ 281153Z AUTO 05004KT 4SM BR CLR 19/17 A3009 RMK AO2 SLP184 T01890172 10211 20178 51007

More Conditions Fewer Conditions

Pressure 30.08 in
Visibility 4.0 miles
Clouds Clear
Dew Point 67 °F
Humidity 91%
Rainfall 0.00 in
Snow Depth Not available.
UV 0 out of 12
Pollen 10.40 out of 12
Ozone Good
PM2.5 Good
Flu Activity Not available.
METAR KGEZ 281153Z AUTO 05004KT 4SM BR CLR 19/17 A3009 RMK AO2 SLP184 T01890172 10211 20178 51007

More Conditions Fewer Conditions

10-Day Weather Forecast

Almanac

Astronomy

Aug. 28, 2014 Rise Set
Actual Time 7:07 AM EDT 8:20 PM EDT
Civil Twilight 6:39 AM EDT 8:47 PM EDT
Nautical Twilight 6:06 AM EDT 9:21 PM EDT
Astronomical Twilight 5:31 AM EDT 9:55 PM EDT
Moon 9:58 AM EDT 9:44 PM EDT
Length of Visible Light 14h 08m
Length of Day
13h 12m
Tomorrow will be 2m 26s shorter.
Waxing Crescent, 8% of the Moon is Illuminated
Today
Waxing Crescent
Sep 2
First Quarter
Sep 8
Full
Sep 15
Last Quarter
Sep 24
New

Today's Extremes

State Highs State Lows

Community

WunderPhotos

Upload Photos

1,747,932 photos uploaded!

Nearby

Air Quality

  Air Quality AQ Index Pollutant
Yesterday Good
PM10
Yesterday Good
OZONE
Current Good
PM2.5
Current Good
OZONE
Thursday Moderate
PM2.5
Thursday Good
OZONE
Friday Moderate
PM2.5
Friday Moderate
OZONE

Snow Depth

Station Depth Elevation
No new snow has been reported.

Earthquake Activity

City Distance Mag. Time & Date
No recent earthquake activity has been reported nearby.
Minimum magnitude displayed is 2.5.

Coastal Water Temperatures

Place Temperature
No Stations Reporting

Nearby Weather Stations